createdAt,value
2023-03-31T00:00:42.528Z,929.6
2023-03-31T00:15:42.924Z,929.1
2023-03-31T00:30:43.016Z,928.7
2023-03-31T00:45:44.716Z,928.6
2023-03-31T01:00:44.605Z,928.9
2023-03-31T01:15:45.272Z,929.7
2023-03-31T01:30:48.723Z,929.7
2023-03-31T01:45:46.038Z,928.5
2023-03-31T02:00:47.411Z,928.4
2023-03-31T02:15:48.280Z,928.6
2023-03-31T02:30:48.436Z,929.2
2023-03-31T02:45:49.526Z,930.3
2023-03-31T03:00:49.469Z,931
2023-03-31T03:15:50.417Z,930.5
2023-03-31T03:30:50.807Z,930.4
2023-03-31T03:45:51.774Z,930.7
2023-03-31T04:00:52.166Z,930.5
2023-03-31T04:15:52.944Z,930.8
2023-03-31T04:30:52.857Z,930.1
2023-03-31T04:45:53.417Z,929.4
2023-03-31T04:53:50.266Z,929
2023-03-31T05:08:51.130Z,928.6
2023-03-31T05:23:51.377Z,927.8
2023-03-31T05:38:52.016Z,926.2
2023-03-31T05:53:52.596Z,926.2
2023-03-31T06:08:52.906Z,925.8
2023-03-31T06:23:53.645Z,924.4
2023-03-31T06:38:54.435Z,922.5
2023-03-31T06:53:54.634Z,922.1
2023-03-31T07:08:55.520Z,923.2
2023-03-31T07:23:55.692Z,923.6
2023-03-31T07:38:56.627Z,923.4
2023-03-31T07:54:03.787Z,922.3
2023-03-31T08:09:02.458Z,922.3
2023-03-31T08:23:58.293Z,923.4
2023-03-31T08:38:59.112Z,923.1
2023-03-31T08:53:59.448Z,923.6
2023-03-31T09:09:00.715Z,922.8
2023-03-31T09:24:00.623Z,922.4
2023-03-31T09:39:01.026Z,922.4
2023-03-31T09:54:01.626Z,922.1
2023-03-31T10:09:05.931Z,922.1
2023-03-31T10:24:02.829Z,921.2
2023-03-31T10:39:04.832Z,921.2
2023-03-31T10:54:04.182Z,924.8
2023-03-31T11:09:04.892Z,922.8
2023-03-31T11:24:05.418Z,921.7
2023-03-31T11:39:05.625Z,921.1
2023-03-31T11:54:06.471Z,920.6
2023-03-31T12:09:06.854Z,921.9
2023-03-31T12:24:10.179Z,921.9
2023-03-31T12:39:08.176Z,924.3
2023-03-31T12:54:09.112Z,924.4
2023-03-31T13:09:09.212Z,924.6
2023-03-31T13:39:13.558Z,922.7
2023-03-31T13:54:21.960Z,922.7
2023-03-31T14:09:11.655Z,922.9
2023-03-31T14:24:16.482Z,922.3
2023-03-31T14:39:12.669Z,922.1
2023-03-31T14:54:13.181Z,921.6
2023-03-31T15:09:14.102Z,921.5
2023-03-31T15:24:16.425Z,920.5
2023-03-31T15:54:18.451Z,920.5
2023-03-31T16:09:16.774Z,919.7
2023-03-31T16:24:17.316Z,920.3
2023-03-31T16:39:17.003Z,924.3
2023-03-31T16:54:18.169Z,925
2023-03-31T17:09:17.918Z,923.7
2023-03-31T17:24:19.240Z,924.5
2023-03-31T17:39:19.203Z,924
2023-03-31T17:54:20.991Z,922.3
2023-03-31T18:09:20.186Z,921.7
2023-03-31T18:24:21.456Z,921.8
2023-03-31T18:39:22.148Z,921.9
2023-03-31T18:54:29.398Z,921.9
2023-03-31T19:09:23.448Z,921.8
2023-03-31T19:24:24.478Z,921.5
2023-03-31T19:39:26.319Z,921.5
2023-03-31T19:54:24.288Z,921.6
2023-03-31T20:09:25.708Z,921.9
2023-03-31T20:24:26.804Z,923
2023-03-31T20:39:26.584Z,923.1
2023-03-31T20:54:28.242Z,923.1
2023-03-31T21:09:28.296Z,922.9
2023-03-31T21:24:30.527Z,922.9
2023-03-31T21:39:30.102Z,923
2023-03-31T21:54:30.392Z,922.5
2023-03-31T22:00:34.533Z,922.4
2023-03-31T22:15:35.566Z,923.3
2023-03-31T22:30:35.898Z,923.5
2023-03-31T22:45:36.434Z,923.3
2023-03-31T23:00:36.033Z,922.7
2023-03-31T23:15:36.828Z,922
2023-03-31T23:30:37.317Z,921.6
2023-03-31T23:45:37.746Z,921.6
